Latest Coastal Weather Observations for Cape Otway

IDT60701

Issued at 10:15 pm EST Tuesday 2 September 2014 (issued every 10 minutes, with the page automatically refreshed every 10 minutes)

About coastal observations | Map of coastal stations | Coastal observations for TAS | Marine services | Other Formats
Station Details ID: 090015 Name: CAPE OTWAY LIGHTHOUSE Lat: -38.86 Lon: 143.51 Height: 82.0 m
Data from the previous 72 hours. | See also: Recent months at Cape Otway
Date/Time
EST
Temp

°C
Wind Pressure Rain
since 9am
mm
Weather Cloud Vis
km
Sea
Height
m
Swell
Dir
 
Speed
knots
Gust
knots
hPa Trend Height
m
Period
s
Dir
02/10:00pm 10.6 - 13 18 1024.3 - 1.4 - - - - - - -
02/09:30pm 10.3 - 14 20 1024.2 - 1.4 - - - - - - -
02/09:00pm 10.3 - 18 23 1024.3 - 1.4 - - - - - - -
02/08:34pm 9.3 - 19 29 1024.1 - 1.4 - - - - - - -
02/08:30pm 9.7 - 21 29 1024.0 - 1.2 - - - - - - -
02/08:28pm 9.8 W 23 29 1023.9 - 1.2 - - - - - - -
02/08:05pm 10.1 - 15 25 1023.7 - 1.0 - - - - - - -
02/08:00pm 10.5 - 8 19 1023.8 - 1.0 - - - - - - -
02/07:30pm 9.6 - 5 7 1023.7 - 1.0 - - - - - - -
02/07:00pm 9.7 - 16 22 1023.3 - 1.0 - - - - - - -
02/06:48pm 10.2 W 19 24 1023.3 - 1.0 - - - - - - -
02/06:46pm 10.2 - 20 24 1023.3 - 1.0 - - - - - - -
02/06:30pm 9.4 - 6 8 1023.2 - 1.0 - - - - - - -
02/06:00pm 10.6 - 14 20 1022.8 - 0.6 - - - - - - -
02/05:30pm 9.5 - 14 23 1022.6 - 0.6 - - - - - - -
02/05:00pm 10.7 - 11 17 1022.2 - 0.0 - - - - - - -
02/04:30pm 11.4 - 14 18 1022.1 - 0.0 - - - - - - -
02/04:00pm 11.5 - 16 20 1021.9 - 0.0 - - - - - - -
02/03:30pm 11.5 - 14 21 1021.6 - 0.0 - - - - - - -
02/03:00pm 11.9 - 13 19 1021.4 R 0.0 Fine Partly cloudy 20 2 1.0 - S
02/02:30pm 12.0 - 14 18 1021.2 - 0.0 - - - - - - -
02/02:00pm 11.8 - 13 20 1021.1 - 0.0 - - - - - - -
02/01:30pm 11.8 - 18 23 1021.0 - 0.0 - - - - - - -
02/01:00pm 11.5 - 12 19 1021.2 - 0.0 - - - - - - -
02/12:30pm 11.9 - 13 21 1021.1 - 0.0 - - - - - - -
02/12:00pm 11.4 - 15 20 1021.3 - 0.0 - - - - - - -
02/11:30am 11.8 - 14 19 1021.0 - 0.0 - - - - - - -
02/11:00am 10.9 - 11 18 1021.1 - 0.0 - - - - - - -
02/10:30am 10.5 - 14 23 1020.8 - 0.0 - - - - - - -
02/10:00am 11.4 - 12 21 1020.5 - 0.0 - - - - - - -
02/09:30am 10.2 - 19 26 1020.4 - 0.0 - - - - - - -
02/09:21am 10.5 - 20 25 1020.1 - 0.0 - - - - - - -
02/09:20am 10.3 - 21 26 1020.2 - 0.0 - - - - - - -
02/09:00am 11.4 - 9 15 1019.9 R 4.6 Distant precip. Mostly cloudy 20 2 1.0 - S
02/08:30am 11.3 - 10 14 1019.4 - 4.6 - - - - - - -
02/08:00am 9.6 - 9 19 1019.1 - 4.6 - - - - - - -
02/07:30am 10.0 - 9 13 1018.5 - 4.4 - - - - - - -
02/07:00am 10.6 - 12 18 1017.8 - 4.2 - - - - - - -
02/06:30am 10.6 - 12 17 1017.4 - 4.2 - - - - - - -
02/06:00am 9.5 - 9 15 1017.2 - 4.2 - - - - - - -
02/05:30am 8.8 - 9 19 1016.7 - 3.8 - - - - - - -
02/05:00am 10.7 - 20 25 1016.0 - 2.2 - - - - - - -
02/04:30am 10.9 - 13 20 1015.5 - 2.2 - - - - - - -
02/04:00am 11.0 - 17 23 1015.2 - 2.2 - - - - - - -
02/03:30am 9.6 - 8 15 1015.3 - 2.2 - - - - - - -
02/03:17am 10.2 - 20 30 1015.2 - 2.0 - - - - - - -
02/03:00am 11.0 - 18 26 1015.1 - 2.0 - - - - - - -
02/02:30am 11.3 - 17 23 1014.6 - 2.0 - - - - - - -
02/02:00am 11.0 - 13 20 1014.4 - 2.0 - - - - - - -
02/01:30am 11.3 - 16 23 1014.2 - 2.0 - - - - - - -
02/01:00am 11.3 - 14 20 1013.9 - 2.0 - - - - - - -
02/12:30am 11.5 - 17 22 1013.9 - 2.0 - - - - - - -
02/12:00am 11.4 - 15 19 1013.9 - 2.0 - - - - - - -
 
Date/Time
EST
Temp

°C
Wind Pressure Rain
since 9am
mm
Weather Cloud Vis
km
Sea
Height
m
Swell
Dir
 
Speed
knots
Gust
knots
hPa Trend Height
m
Period
s
Dir
01/11:30pm 11.5 - 16 20 1013.4 - 2.0 - - - - - - -
01/11:22pm 11.6 W 17 20 1013.3 - 2.0 - - - - - - -
01/11:20pm 11.6 - 17 20 1013.3 - 2.0 - - - - - - -
01/11:00pm 10.1 - 6 9 1013.3 - 2.0 - - - - - - -
01/10:30pm 9.8 - 6 7 1013.1 - 2.0 - - - - - - -
01/10:00pm 10.3 - 14 22 1013.0 - 2.0 - - - - - - -
01/09:30pm 11.1 - 12 15 1012.6 - 2.0 - - - - - - -
01/09:00pm 11.1 - 14 20 1012.3 - 2.0 - - - - - - -
01/08:30pm 11.7 - 11 13 1012.1 - 1.8 - - - - - - -
01/08:00pm 11.7 - 11 14 1012.0 - 1.8 - - - - - - -
01/07:30pm 11.9 - 12 16 1011.6 - 1.8 - - - - - - -
01/07:00pm 11.6 - 8 12 1011.2 - 1.8 - - - - - - -
01/06:30pm 11.7 - 9 14 1011.0 - 1.8 - - - - - - -
01/06:00pm 11.8 - 11 15 1010.6 - 1.8 - - - - - - -
01/05:30pm 11.8 - 15 20 1010.2 - 1.8 - - - - - - -
01/05:00pm 12.0 - 14 19 1009.9 - 1.8 - - - - - - -
01/04:30pm 11.9 - 12 17 1009.5 - 1.8 - - - - - - -
01/04:00pm 11.8 - 12 19 1009.2 - 1.6 - - - - - - -
01/03:30pm 12.0 - 11 14 1008.9 - 1.6 - - - - - - -
01/03:00pm 11.9 - 11 15 1008.9 R 1.6 Distant precip. Mostly cloudy 20 2 1.0 - S
01/02:30pm 11.1 - 16 22 1008.6 - 1.6 - - - - - - -
01/02:16pm 12.4 - 15 29 1008.4 - 1.0 - - - - - - -
01/02:14pm 12.4 - 15 29 1008.4 - 1.0 - - - - - - -
01/02:00pm 13.2 - 14 19 1008.5 - 1.0 - - - - - - -
01/01:30pm 12.9 - 15 22 1008.3 - 1.0 - - - - - - -
01/01:00pm 12.6 - 15 20 1008.5 - 1.0 - - - - - - -
01/12:30pm 11.8 - 16 21 1008.5 - 1.0 - - - - - - -
01/12:00pm 11.8 - 13 18 1008.7 - 1.0 - - - - - - -
01/11:30am 12.1 - 17 23 1008.4 - 1.0 - - - - - - -
01/11:00am 11.7 - 15 23 1008.2 - 1.0 - - - - - - -
01/10:30am 12.0 - 16 22 1008.0 - 1.0 - - - - - - -
01/10:06am 11.6 - 17 27 1007.9 - 1.0 - - - - - - -
01/10:00am 11.6 - 17 24 1007.8 - 1.0 - - - - - - -
01/09:53am 11.6 - 15 25 1007.7 - 0.8 - - - - - - -
01/09:52am 11.6 - 15 25 1007.7 - 0.8 - - - - - - -
01/09:30am 11.5 - 14 21 1007.5 - 0.0 - - - - - - -
01/09:00am 11.4 - 15 25 1007.3 - 1.6 - - - - - - -
01/08:58am 11.6 - 15 25 1007.2 - 1.6 - - - - - - -
01/08:30am 11.4 - 12 19 1006.9 - 1.6 - - - - - - -
01/08:00am 11.1 - 11 18 1006.8 - 1.6 - - - - - - -
01/07:30am 11.4 - 12 19 1006.8 - 1.6 - - - - - - -
01/07:00am 11.8 - 13 19 1006.8 - 0.8 - - - - - - -
01/06:30am 12.0 - 12 21 1006.4 - 0.4 - - - - - - -
01/06:00am 12.5 - 12 19 1006.2 - 0.2 - - - - - - -
01/05:30am 12.3 - 11 19 1006.1 - 0.0 - - - - - - -
01/05:00am 12.4 - 10 15 1006.4 - 0.0 - - - - - - -
01/04:30am 13.3 - 11 19 1006.7 - 0.0 - - - - - - -
01/04:00am 14.3 - 12 18 1007.0 - 0.0 - - - - - - -
01/03:30am 15.3 - 12 17 1006.8 - 0.0 - - - - - - -
01/03:00am 15.2 - 9 16 1006.5 - 0.0 - - - - - - -
01/02:30am 15.5 - 9 16 1006.4 - 0.0 - - - - - - -
01/02:00am 15.6 - 11 16 1007.0 - 0.0 - - - - - - -
01/01:30am 14.9 - 7 9 1006.7 - 0.0 - - - - - - -
01/01:00am 15.1 - 8 11 1007.3 - 0.0 - - - - - - -
01/12:30am 15.0 - 7 10 1007.5 - 0.0 - - - - - - -
01/12:00am 15.5 - 9 12 1007.7 - 0.0 - - - - - - -
 
Date/Time
EST
Temp

°C
Wind Pressure Rain
since 9am
mm
Weather Cloud Vis
km
Sea
Height
m
Swell
Dir
 
Speed
knots
Gust
knots
hPa Trend Height
m
Period
s
Dir
31/11:30pm 16.8 - 10 18 1008.0 - 0.0 - - - - - - -
31/11:07pm 17.7 - 15 25 1007.5 - 0.0 - - - - - - -
31/11:05pm 17.7 - 15 25 1007.5 - 0.0 - - - - - - -
31/11:00pm 17.6 - 15 23 1007.6 - 0.0 - - - - - - -
31/10:30pm 17.4 - 15 23 1008.2 - 0.0 - - - - - - -
31/10:00pm 16.8 - 13 20 1008.9 - 0.0 - - - - - - -
31/09:30pm 16.9 - 12 16 1009.2 - 0.0 - - - - - - -
31/09:00pm 17.4 - 9 17 1009.4 - 0.0 - - - - - - -
31/08:30pm 17.8 - 11 21 1009.1 - 0.0 - - - - - - -
31/08:00pm 17.8 - 13 19 1009.8 - 0.0 - - - - - - -
31/07:30pm 17.7 - 13 20 1010.0 - 0.0 - - - - - - -
31/07:00pm 17.8 - 14 22 1010.4 - 0.0 - - - - - - -
31/06:30pm 18.0 - 13 21 1010.4 - 0.0 - - - - - - -
31/06:00pm 18.1 - 9 15 1010.5 - 0.0 - - - - - - -
31/05:30pm 18.6 - 11 16 1010.5 - 0.0 - - - - - - -
31/05:00pm 19.3 - 12 18 1010.6 - 0.0 - - - - - - -
31/04:30pm 20.0 - 14 20 1010.7 - 0.0 - - - - - - -
31/04:00pm 20.9 - 12 18 1010.8 - 0.0 - - - - - - -
31/03:30pm 21.0 - 11 17 1011.0 - 0.0 - - - - - - -
31/03:00pm 21.0 - 12 19 1011.3 - 0.0 - - - - - - -
31/02:30pm 20.7 - 12 17 1011.7 - 0.0 - - - - - - -
31/02:00pm 19.9 - 13 21 1011.9 - 0.0 - - - - - - -
31/01:30pm 20.3 - 12 22 1012.5 - 0.0 - - - - - - -
31/01:00pm 19.2 - 15 21 1012.8 - 0.0 - - - - - - -
31/12:30pm 18.6 - 18 26 1013.2 - 0.0 - - - - - - -
31/12:00pm 17.9 - 19 29 1013.6 - 0.0 - - - - - - -
31/11:30am 17.7 - 16 26 1014.3 - 0.0 - - - - - - -
31/11:26am 17.6 - 16 26 1014.3 - 0.0 - - - - - - -
31/11:00am 17.0 - 14 23 1014.7 - 0.0 - - - - - - -
31/10:31am 16.9 - 17 28 1015.0 - 0.0 - - - - - - -
31/10:30am 17.0 - 17 24 1015.0 - 0.0 - - - - - - -
31/10:01am 18.0 - 16 26 1015.3 - 0.0 - - - - - - -
31/10:00am 18.0 - 17 26 1015.3 - 0.0 - - - - - - -
31/09:35am 18.0 - 16 26 1015.7 - 0.0 - - - - - - -
31/09:30am 17.8 - 16 25 1015.7 - 0.0 - - - - - - -
31/09:11am 17.5 - 16 26 1015.8 - 0.0 - - - - - - -
31/09:00am 17.2 - 17 25 1015.8 F 0.0 Fine Mostly cloudy 20 2 1.0 - S
31/08:49am 17.0 - 16 26 1015.8 - 0.0 - - - - - - -
31/08:47am 17.0 - 16 26 1015.8 - 0.0 - - - - - - -
31/08:30am 16.5 - 17 25 1015.8 - 0.0 - - - - - - -
31/08:00am 15.6 - 18 25 1016.1 - 0.0 - - - - - - -
31/07:30am 14.8 - 17 26 1016.2 - 0.0 - - - - - - -
31/07:00am 14.4 - 16 25 1016.1 - 0.0 - - - - - - -
31/06:30am 14.4 - 17 23 1016.1 - 0.0 - - - - - - -
31/06:00am 14.4 - 16 22 1016.2 - 0.0 - - - - - - -
31/05:30am 14.5 - 16 22 1016.2 - 0.0 - - - - - - -
31/05:00am 14.6 - 16 21 1016.4 - 0.0 - - - - - - -
31/04:30am 14.7 - 16 23 1016.3 - 0.0 - - - - - - -
31/04:00am 14.8 - 14 19 1016.6 - 0.0 - - - - - - -
31/03:30am 15.0 - 14 20 1016.8 - 0.0 - - - - - - -
31/03:00am 14.9 - 13 18 1017.0 - 0.0 - - - - - - -
31/02:30am 15.0 - 12 17 1017.4 - 0.0 - - - - - - -
31/02:00am 15.1 - 14 19 1017.7 - 0.0 - - - - - - -
31/01:30am 14.8 - 13 18 1017.9 - 0.0 - - - - - - -
31/01:00am 14.8 - 15 18 1018.2 - 0.0 - - - - - - -
31/12:30am 14.7 - 14 17 1018.4 - 0.0 - - - - - - -
31/12:00am 14.6 - 13 17 1018.8 - 0.0 - - - - - - -
 
Date/Time
EST
Temp

°C
Wind Pressure Rain
since 9am
mm
Weather Cloud Vis
km
Sea
Height
m
Swell
Dir
 
Speed
knots
Gust
knots
hPa Trend Height
m
Period
s
Dir
30/11:30pm 14.6 - 12 16 1019.0 - 0.0 - - - - - - -
30/11:00pm 14.5 - 12 15 1019.3 - 0.0 - - - - - - -
30/10:30pm 14.0 - 10 13 1019.6 - 0.0 - - - - - - -

Other Formats:

Comma delimited format used in spreadsheet applications
http://www.bom.gov.au/fwo/IDT60701/IDT60701.94842.axf

JavaScript Object Notation format (JSON) in row-major order
http://www.bom.gov.au/fwo/IDT60701/IDT60701.94842.json